createdAt,value
2017-08-30T00:00:29.228Z,86.40
2017-08-30T00:02:57.053Z,85.13
2017-08-30T00:05:25.721Z,85.06
2017-08-30T00:07:53.430Z,85.26
2017-08-30T00:10:21.219Z,84.77
2017-08-30T00:12:48.989Z,85.45
2017-08-30T00:15:17.389Z,85.85
2017-08-30T00:17:45.270Z,85.52
2017-08-30T00:20:12.964Z,85.20
2017-08-30T00:22:40.718Z,85.11
2017-08-30T00:25:20.174Z,85.57
2017-08-30T00:27:48.835Z,85.01
2017-08-30T00:30:16.566Z,85.29
2017-08-30T00:32:44.421Z,85.22
2017-08-30T00:35:12.228Z,85.83
2017-08-30T00:37:40.707Z,84.82
2017-08-30T00:40:08.494Z,85.05
2017-08-30T00:42:36.239Z,84.64
2017-08-30T00:45:03.950Z,84.88
2017-08-30T00:47:31.744Z,84.74
2017-08-30T00:49:59.513Z,85.00
2017-08-30T00:52:27.293Z,85.32
2017-08-30T00:54:55.342Z,85.04
2017-08-30T00:57:23.037Z,85.46
2017-08-30T00:59:50.750Z,85.23
2017-08-30T01:02:18.497Z,85.49
2017-08-30T01:04:46.182Z,85.31
2017-08-30T01:07:13.921Z,84.93
2017-08-30T01:09:41.716Z,86.68
2017-08-30T01:12:09.434Z,85.88
2017-08-30T01:14:37.217Z,85.62
2017-08-30T01:17:04.980Z,84.98
2017-08-30T01:19:32.687Z,84.92
2017-08-30T01:22:00.459Z,86.21
2017-08-30T01:24:28.741Z,85.00
2017-08-30T01:26:56.501Z,85.25
2017-08-30T01:29:24.222Z,84.71
2017-08-30T01:31:51.930Z,85.90
2017-08-30T01:34:19.676Z,85.28
2017-08-30T01:36:47.374Z,85.72
2017-08-30T01:39:15.068Z,85.39
2017-08-30T01:41:42.848Z,85.57
2017-08-30T01:44:10.546Z,85.58
2017-08-30T01:46:38.328Z,85.14
2017-08-30T01:49:06.062Z,85.57
2017-08-30T01:51:33.790Z,85.40
2017-08-30T01:54:01.521Z,85.69
2017-08-30T01:56:29.349Z,85.27
2017-08-30T01:58:57.127Z,84.64
2017-08-30T02:01:24.819Z,84.84
2017-08-30T02:03:52.586Z,85.26
2017-08-30T02:06:20.372Z,85.20
2017-08-30T02:08:48.163Z,85.04
2017-08-30T02:11:15.877Z,85.39
2017-08-30T02:13:43.615Z,85.27
2017-08-30T02:16:11.297Z,86.25
2017-08-30T02:18:39.133Z,85.83
2017-08-30T02:21:06.837Z,85.11
2017-08-30T02:23:34.570Z,85.61
2017-08-30T02:26:02.379Z,84.91
2017-08-30T02:28:30.192Z,85.17
2017-08-30T02:30:58.385Z,85.46
2017-08-30T02:33:26.078Z,85.56
2017-08-30T02:35:53.823Z,85.98
2017-08-30T02:38:21.490Z,85.61
2017-08-30T02:40:49.300Z,85.41
2017-08-30T02:43:17.062Z,85.67
2017-08-30T02:45:44.824Z,85.25
2017-08-30T02:48:12.533Z,85.77
2017-08-30T02:50:40.296Z,85.43
2017-08-30T02:53:08.054Z,85.54
2017-08-30T02:55:35.799Z,86.09
2017-08-30T02:58:03.583Z,86.18
2017-08-30T03:00:31.293Z,87.17
2017-08-30T03:02:59.105Z,86.35
2017-08-30T03:05:26.797Z,85.94
2017-08-30T03:07:54.531Z,86.35
2017-08-30T03:10:22.298Z,86.19
2017-08-30T03:12:50.046Z,86.21
2017-08-30T03:15:17.739Z,86.87
2017-08-30T03:17:45.431Z,86.54
2017-08-30T03:20:13.214Z,86.28
2017-08-30T03:22:40.909Z,86.47
2017-08-30T03:25:08.634Z,86.56
2017-08-30T03:27:36.412Z,86.73
2017-08-30T03:30:04.153Z,86.63
2017-08-30T03:32:31.914Z,86.28
2017-08-30T03:34:59.616Z,86.06
2017-08-30T03:37:27.337Z,85.47
2017-08-30T03:39:55.144Z,86.32
2017-08-30T03:42:22.984Z,85.88
2017-08-30T03:44:50.678Z,85.70
2017-08-30T03:47:18.402Z,85.59
2017-08-30T03:49:46.168Z,85.55
2017-08-30T03:52:13.955Z,86.07
2017-08-30T03:54:41.729Z,85.75
2017-08-30T03:57:09.474Z,85.92
2017-08-30T03:59:37.215Z,85.46
2017-08-30T04:02:04.992Z,85.69
2017-08-30T04:04:32.775Z,85.08
2017-08-30T04:07:00.522Z,85.51
2017-08-30T04:09:29.206Z,85.90
2017-08-30T04:11:57.143Z,86.08
2017-08-30T04:14:24.936Z,86.53
2017-08-30T04:16:52.790Z,87.10
2017-08-30T04:19:20.557Z,86.58
2017-08-30T04:21:48.280Z,86.30
2017-08-30T04:24:16.027Z,86.09
2017-08-30T04:26:43.755Z,85.78
2017-08-30T04:29:11.498Z,86.25
2017-08-30T04:31:39.276Z,86.28
2017-08-30T04:34:07.004Z,85.59
2017-08-30T04:36:34.797Z,85.81
2017-08-30T04:39:02.561Z,85.89
2017-08-30T04:41:30.337Z,86.32
2017-08-30T04:43:58.049Z,85.80
2017-08-30T04:46:25.849Z,85.38
2017-08-30T04:48:53.573Z,86.00
2017-08-30T04:51:22.220Z,85.74
2017-08-30T04:53:50.068Z,86.42
2017-08-30T04:56:17.766Z,86.63
2017-08-30T04:58:45.527Z,87.06
2017-08-30T05:01:13.260Z,86.72
2017-08-30T05:03:41.022Z,86.71
2017-08-30T05:06:08.842Z,86.67
2017-08-30T05:08:36.620Z,86.36
2017-08-30T05:11:04.334Z,85.90
2017-08-30T05:13:32.085Z,84.26
2017-08-30T05:16:00.160Z,74.49
2017-08-30T05:18:27.925Z,66.77
2017-08-30T05:20:55.626Z,64.82
2017-08-30T05:23:23.395Z,63.93
2017-08-30T05:25:51.165Z,67.88
2017-08-30T05:28:18.906Z,71.21
2017-08-30T05:30:46.588Z,74.08
2017-08-30T05:33:14.380Z,75.29
2017-08-30T05:35:42.086Z,76.34
2017-08-30T05:38:10.126Z,76.97
2017-08-30T05:40:37.936Z,77.46
2017-08-30T05:43:05.686Z,78.74
2017-08-30T05:45:33.451Z,79.71
2017-08-30T05:48:01.240Z,79.92
2017-08-30T05:50:28.960Z,79.15
2017-08-30T05:52:56.759Z,79.89
2017-08-30T05:55:25.382Z,78.50
2017-08-30T05:57:53.138Z,77.67
2017-08-30T06:00:20.933Z,76.96
2017-08-30T06:02:48.742Z,79.04
2017-08-30T06:05:16.538Z,78.35
2017-08-30T06:07:44.315Z,79.46
2017-08-30T06:10:12.079Z,79.49
2017-08-30T06:12:39.832Z,78.57
2017-08-30T06:15:07.591Z,77.53
2017-08-30T06:17:35.637Z,77.30
2017-08-30T06:20:04.016Z,78.52
2017-08-30T06:22:31.846Z,77.25
2017-08-30T06:24:59.554Z,77.05
2017-08-30T06:27:27.368Z,76.39
2017-08-30T06:29:55.074Z,74.34
2017-08-30T06:32:22.845Z,76.13
2017-08-30T06:34:50.640Z,76.13
2017-08-30T06:37:18.440Z,76.63
2017-08-30T06:39:46.212Z,75.87
2017-08-30T06:42:13.913Z,75.97
2017-08-30T06:44:41.686Z,76.20
2017-08-30T06:47:10.071Z,76.80
2017-08-30T06:49:38.100Z,77.26
2017-08-30T06:52:05.943Z,75.75
2017-08-30T06:54:34.320Z,74.71
2017-08-30T06:57:03.932Z,74.91
2017-08-30T06:59:32.617Z,74.78
2017-08-30T07:02:00.760Z,74.65
2017-08-30T07:04:28.467Z,75.70
2017-08-30T07:06:56.266Z,73.09
2017-08-30T07:09:23.993Z,73.55
2017-08-30T07:11:51.752Z,73.26
2017-08-30T07:14:19.455Z,74.28
2017-08-30T07:16:47.242Z,74.25
2017-08-30T07:19:15.077Z,72.37
2017-08-30T07:21:42.889Z,70.83
2017-08-30T07:24:10.663Z,71.20
2017-08-30T07:26:38.483Z,70.78
2017-08-30T07:29:06.198Z,70.01
2017-08-30T07:31:33.964Z,70.56
2017-08-30T07:34:02.453Z,71.15
2017-08-30T07:36:30.224Z,69.40
2017-08-30T07:38:58.790Z,70.13
2017-08-30T07:41:26.543Z,69.86
2017-08-30T07:43:54.297Z,69.88
2017-08-30T07:46:22.103Z,69.40
2017-08-30T07:48:49.956Z,69.17
2017-08-30T07:51:17.788Z,68.55
2017-08-30T07:53:45.519Z,70.29
2017-08-30T07:56:13.282Z,67.73
2017-08-30T07:58:41.123Z,67.94
2017-08-30T08:01:08.881Z,67.91
2017-08-30T08:03:37.100Z,67.07
2017-08-30T08:06:04.827Z,65.68
2017-08-30T08:08:32.614Z,67.18
2017-08-30T08:11:00.414Z,67.12
2017-08-30T08:13:28.167Z,65.18
2017-08-30T08:15:55.965Z,63.84
2017-08-30T08:18:23.866Z,62.96
2017-08-30T08:20:51.655Z,63.12
2017-08-30T08:23:19.454Z,63.67
2017-08-30T08:25:47.309Z,63.85
2017-08-30T08:28:15.125Z,62.79
2017-08-30T08:30:42.914Z,62.08
2017-08-30T08:33:10.727Z,63.69
2017-08-30T08:35:38.540Z,62.66
2017-08-30T08:38:06.305Z,62.22
2017-08-30T08:40:34.019Z,62.51
2017-08-30T08:43:01.934Z,61.37
2017-08-30T08:45:29.720Z,62.55
2017-08-30T08:47:58.408Z,63.06
2017-08-30T08:50:26.163Z,62.38
2017-08-30T08:52:54.027Z,61.24
2017-08-30T08:55:21.745Z,60.50
2017-08-30T08:57:49.500Z,61.29
2017-08-30T09:00:17.235Z,58.62
2017-08-30T09:02:45.074Z,60.65
2017-08-30T09:05:12.869Z,58.04
2017-08-30T09:07:40.643Z,58.88
2017-08-30T09:10:08.489Z,58.89
2017-08-30T09:12:36.295Z,56.68
2017-08-30T09:15:04.146Z,56.82
2017-08-30T09:17:33.151Z,57.57
2017-08-30T09:20:00.914Z,56.87
2017-08-30T09:22:28.666Z,57.00
2017-08-30T09:24:56.413Z,57.50
2017-08-30T09:27:24.223Z,56.91
2017-08-30T09:29:52.822Z,56.89
2017-08-30T09:32:20.624Z,57.65
2017-08-30T09:34:48.462Z,57.72
2017-08-30T09:37:16.192Z,57.99
2017-08-30T09:39:43.964Z,56.80
2017-08-30T09:42:11.668Z,55.15
2017-08-30T09:44:40.506Z,53.65
2017-08-30T09:47:08.210Z,54.70
2017-08-30T09:49:37.640Z,55.24
2017-08-30T09:52:06.102Z,53.10
2017-08-30T09:54:33.890Z,54.18
2017-08-30T09:57:01.704Z,50.99
2017-08-30T09:59:29.529Z,50.31
2017-08-30T10:01:57.316Z,49.96
2017-08-30T10:04:25.231Z,49.78
2017-08-30T10:06:53.189Z,51.93
2017-08-30T10:09:20.922Z,51.57
2017-08-30T10:11:49.407Z,50.73
2017-08-30T10:14:17.315Z,50.12
2017-08-30T10:16:45.285Z,51.69
2017-08-30T10:19:13.089Z,48.11
2017-08-30T10:21:41.871Z,50.67
2017-08-30T10:24:09.635Z,50.46
2017-08-30T10:26:37.429Z,52.00
2017-08-30T10:29:05.598Z,50.73
2017-08-30T10:31:33.354Z,46.29
2017-08-30T10:34:02.719Z,47.73
2017-08-30T10:36:30.460Z,45.57
2017-08-30T10:38:58.265Z,50.60
2017-08-30T10:41:27.753Z,50.30
2017-08-30T10:43:55.498Z,50.24
2017-08-30T10:46:23.443Z,50.63
2017-08-30T10:48:51.286Z,46.88
2017-08-30T10:51:19.103Z,47.84
2017-08-30T10:53:46.866Z,48.11
2017-08-30T10:56:14.731Z,48.64
2017-08-30T10:58:42.494Z,49.00
2017-08-30T11:01:10.254Z,48.30
2017-08-30T11:03:38.009Z,48.32
2017-08-30T11:06:05.735Z,46.68
2017-08-30T11:08:33.589Z,47.35
2017-08-30T11:11:01.296Z,48.52
2017-08-30T11:13:29.039Z,46.13
2017-08-30T11:15:57.634Z,46.71
2017-08-30T11:18:25.419Z,47.06
2017-08-30T11:20:53.186Z,47.39
2017-08-30T11:23:20.990Z,46.47
2017-08-30T11:25:48.714Z,46.60
2017-08-30T11:28:16.527Z,47.03
2017-08-30T11:30:44.447Z,44.67
2017-08-30T11:33:12.346Z,45.63
2017-08-30T11:35:40.052Z,45.76
2017-08-30T11:38:07.845Z,46.16
2017-08-30T11:40:35.612Z,44.55
2017-08-30T11:43:03.446Z,46.43
2017-08-30T11:45:31.221Z,45.48
2017-08-30T11:47:59.604Z,47.07
2017-08-30T11:50:27.371Z,46.02
2017-08-30T11:52:55.105Z,46.48
2017-08-30T11:55:22.936Z,47.19
2017-08-30T11:57:50.685Z,46.61
2017-08-30T12:00:18.497Z,45.82
2017-08-30T12:02:46.204Z,41.55
2017-08-30T12:05:13.989Z,44.14
2017-08-30T12:08:05.490Z,46.09
2017-08-30T12:10:33.498Z,44.41
2017-08-30T12:13:01.226Z,44.21
2017-08-30T12:15:28.924Z,44.51
2017-08-30T12:17:56.694Z,45.51
2017-08-30T12:20:24.473Z,45.20
2017-08-30T12:22:52.227Z,43.23
2017-08-30T12:25:19.962Z,42.14
2017-08-30T12:27:47.775Z,39.89
2017-08-30T12:30:15.484Z,43.24
2017-08-30T12:32:43.285Z,41.55
2017-08-30T12:35:11.055Z,42.24
2017-08-30T12:37:44.450Z,42.75
2017-08-30T12:40:12.346Z,41.77
2017-08-30T12:42:40.133Z,41.25
2017-08-30T12:45:08.080Z,40.64
2017-08-30T12:47:35.916Z,42.21
2017-08-30T12:50:03.694Z,43.54
2017-08-30T12:52:31.489Z,42.23
2017-08-30T12:54:59.299Z,43.37
2017-08-30T12:57:27.015Z,41.64
2017-08-30T12:59:54.803Z,41.34
2017-08-30T13:02:22.570Z,42.79
2017-08-30T13:04:51.124Z,43.54
2017-08-30T13:07:18.907Z,43.61
2017-08-30T13:09:46.605Z,44.70
2017-08-30T13:12:14.387Z,44.99
2017-08-30T13:14:42.176Z,45.10
2017-08-30T13:17:10.179Z,45.25
2017-08-30T13:19:37.922Z,45.05
2017-08-30T13:22:05.858Z,45.80
2017-08-30T13:24:33.598Z,47.56
2017-08-30T13:27:01.388Z,43.32
2017-08-30T13:29:29.129Z,43.38
2017-08-30T13:31:57.807Z,42.72
2017-08-30T13:34:25.650Z,43.04
2017-08-30T13:36:53.446Z,47.65
2017-08-30T13:39:21.201Z,45.73
2017-08-30T13:41:48.906Z,46.00
2017-08-30T13:44:16.672Z,43.92
2017-08-30T13:46:44.359Z,44.83
2017-08-30T13:49:12.143Z,45.11
2017-08-30T13:51:39.896Z,45.76
2017-08-30T13:54:07.660Z,46.63
2017-08-30T13:56:35.415Z,46.13
2017-08-30T13:59:03.147Z,46.67
2017-08-30T14:01:30.985Z,47.13
2017-08-30T14:03:59.341Z,47.52
2017-08-30T14:06:27.139Z,47.61
2017-08-30T14:08:54.833Z,48.29
2017-08-30T14:11:22.543Z,48.04
2017-08-30T14:13:50.308Z,48.50
2017-08-30T14:16:18.051Z,48.60
2017-08-30T14:18:45.811Z,47.94
2017-08-30T14:21:13.541Z,47.39
2017-08-30T14:23:41.238Z,47.13
2017-08-30T14:26:09.023Z,47.10
2017-08-30T14:28:36.745Z,48.17
2017-08-30T14:31:04.492Z,47.05
2017-08-30T14:33:32.220Z,46.08
2017-08-30T14:35:59.926Z,47.10
2017-08-30T14:38:27.791Z,47.76
2017-08-30T14:40:55.555Z,48.20
2017-08-30T14:43:23.251Z,48.66
2017-08-30T14:45:51.040Z,49.16
2017-08-30T14:48:18.721Z,50.64
2017-08-30T14:50:46.503Z,51.29
2017-08-30T14:53:14.243Z,51.32
2017-08-30T14:55:42.023Z,50.90
2017-08-30T14:58:09.829Z,50.46
2017-08-30T15:00:37.611Z,52.44
2017-08-30T15:03:05.375Z,52.06
2017-08-30T15:05:33.095Z,53.99
2017-08-30T15:08:00.817Z,54.71
2017-08-30T15:10:28.619Z,54.18
2017-08-30T15:12:56.458Z,53.88
2017-08-30T15:15:24.206Z,55.36
2017-08-30T15:17:52.097Z,55.73
2017-08-30T15:20:19.842Z,55.07
2017-08-30T15:22:47.679Z,57.57
2017-08-30T15:25:15.516Z,57.60
2017-08-30T15:27:43.320Z,57.31
2017-08-30T15:30:11.109Z,56.99
2017-08-30T15:32:39.901Z,57.47
2017-08-30T15:35:07.674Z,57.31
2017-08-30T15:37:35.450Z,59.86
2017-08-30T15:40:03.180Z,58.39
2017-08-30T15:42:31.024Z,60.34
2017-08-30T15:44:58.723Z,60.60
2017-08-30T15:47:26.502Z,61.68
2017-08-30T15:49:54.176Z,59.72
2017-08-30T15:52:21.882Z,61.38
2017-08-30T15:54:49.650Z,62.71
2017-08-30T15:57:17.495Z,62.38
2017-08-30T15:59:45.304Z,62.68
2017-08-30T16:02:13.236Z,64.14
2017-08-30T16:04:41.091Z,64.60
2017-08-30T16:07:08.869Z,65.67
2017-08-30T16:09:36.766Z,65.92
2017-08-30T16:12:04.559Z,65.00
2017-08-30T16:14:32.550Z,64.47
2017-08-30T16:17:01.502Z,64.51
2017-08-30T16:19:30.335Z,65.33
2017-08-30T16:21:58.387Z,64.13
2017-08-30T16:24:26.149Z,65.50
2017-08-30T16:26:53.918Z,63.44
2017-08-30T16:29:21.661Z,64.09
2017-08-30T16:31:49.461Z,65.23
2017-08-30T16:34:17.195Z,66.37
2017-08-30T16:36:44.964Z,67.21
2017-08-30T16:39:12.672Z,67.64
2017-08-30T16:41:40.446Z,68.74
2017-08-30T16:44:08.372Z,68.51
2017-08-30T16:46:36.143Z,66.31
2017-08-30T16:49:03.884Z,65.99
2017-08-30T16:51:31.685Z,64.22
2017-08-30T16:53:59.445Z,64.37
2017-08-30T16:56:29.528Z,64.74
2017-08-30T16:58:57.300Z,65.17
2017-08-30T17:01:25.202Z,64.59
2017-08-30T17:03:52.913Z,65.00
2017-08-30T17:06:21.776Z,67.28
2017-08-30T17:08:49.523Z,68.53
2017-08-30T17:11:17.406Z,68.47
2017-08-30T17:13:45.204Z,66.54
2017-08-30T17:16:12.969Z,66.48
2017-08-30T17:18:40.837Z,67.05
2017-08-30T17:21:08.577Z,67.16
2017-08-30T17:23:36.262Z,67.24
2017-08-30T17:26:04.086Z,67.55
2017-08-30T17:28:31.925Z,68.65
2017-08-30T17:31:00.587Z,67.91
2017-08-30T17:33:28.555Z,67.92
2017-08-30T17:35:56.282Z,68.10
2017-08-30T17:38:24.149Z,67.94
2017-08-30T17:40:51.912Z,69.34
2017-08-30T17:43:19.695Z,70.19
2017-08-30T17:45:48.781Z,70.21
2017-08-30T17:48:17.619Z,70.26
2017-08-30T17:50:45.410Z,70.01
2017-08-30T17:53:13.198Z,70.09
2017-08-30T17:55:40.902Z,69.99
2017-08-30T17:58:08.661Z,69.26
2017-08-30T18:00:36.410Z,69.50
2017-08-30T18:03:04.154Z,69.64
2017-08-30T18:05:31.984Z,70.28
2017-08-30T18:08:00.357Z,70.24
2017-08-30T18:10:29.281Z,70.13
2017-08-30T18:12:57.209Z,70.85
2017-08-30T18:15:25.278Z,70.27
2017-08-30T18:17:53.363Z,70.05
2017-08-30T18:20:21.073Z,70.13
2017-08-30T18:22:48.840Z,70.75
2017-08-30T18:25:16.722Z,70.60
2017-08-30T18:27:44.597Z,70.45
2017-08-30T18:30:12.364Z,70.89
2017-08-30T18:32:40.134Z,71.57
2017-08-30T18:35:08.128Z,71.47
2017-08-30T18:37:36.012Z,71.52
2017-08-30T18:40:03.829Z,72.10
2017-08-30T18:42:31.681Z,71.64
2017-08-30T18:44:59.468Z,73.44
2017-08-30T18:47:27.296Z,73.70
2017-08-30T18:49:55.093Z,73.55
2017-08-30T18:52:22.930Z,73.29
2017-08-30T18:54:51.584Z,74.12
2017-08-30T18:57:19.815Z,73.04
2017-08-30T18:59:47.695Z,73.04
2017-08-30T19:02:15.424Z,73.01
2017-08-30T19:04:43.356Z,72.99
2017-08-30T19:07:11.849Z,73.77
2017-08-30T19:09:40.471Z,74.13
2017-08-30T19:12:08.438Z,72.96
2017-08-30T19:14:37.388Z,72.27
2017-08-30T19:17:06.123Z,71.77
2017-08-30T19:19:33.966Z,73.08
2017-08-30T19:22:03.066Z,74.51
2017-08-30T19:24:30.959Z,74.73
2017-08-30T19:26:58.894Z,75.27
2017-08-30T19:29:26.757Z,75.70
2017-08-30T19:31:54.978Z,75.27
2017-08-30T19:34:22.784Z,74.65
2017-08-30T19:36:50.532Z,74.96
2017-08-30T19:39:18.610Z,75.55
2017-08-30T19:41:46.409Z,75.27
2017-08-30T19:44:14.157Z,75.95
2017-08-30T19:46:42.029Z,75.99
2017-08-30T19:49:09.915Z,75.36
2017-08-30T19:51:37.729Z,75.54
2017-08-30T19:54:05.786Z,75.77
2017-08-30T19:56:33.616Z,76.93
2017-08-30T19:59:02.407Z,76.01
2017-08-30T20:01:30.237Z,76.63
2017-08-30T20:03:58.816Z,76.34
2017-08-30T20:06:26.581Z,76.02
2017-08-30T20:08:54.304Z,76.22
2017-08-30T20:11:22.205Z,76.64
2017-08-30T20:13:50.043Z,77.53
2017-08-30T20:16:17.930Z,77.02
2017-08-30T20:18:45.715Z,77.76
2017-08-30T20:21:13.481Z,77.58
2017-08-30T20:23:41.381Z,78.65
2017-08-30T20:26:09.199Z,76.81
2017-08-30T20:28:38.191Z,77.60
2017-08-30T20:31:05.913Z,78.12
2017-08-30T20:33:33.707Z,77.96
2017-08-30T20:36:01.516Z,79.21
2017-08-30T20:38:29.304Z,79.40
2017-08-30T20:40:57.060Z,79.46
2017-08-30T20:43:24.802Z,78.40
2017-08-30T20:45:52.540Z,78.77
2017-08-30T20:48:21.453Z,79.83
2017-08-30T20:50:49.342Z,78.83
2017-08-30T20:53:17.190Z,79.21
2017-08-30T20:55:44.878Z,79.50
2017-08-30T20:58:12.661Z,79.61
2017-08-30T21:00:40.450Z,79.74
2017-08-30T21:03:08.217Z,81.21
2017-08-30T21:05:35.997Z,81.71
2017-08-30T21:08:03.771Z,81.03
2017-08-30T21:10:31.459Z,80.57
2017-08-30T21:12:59.233Z,80.15
2017-08-30T21:15:27.024Z,80.35
2017-08-30T21:17:55.800Z,80.41
2017-08-30T21:20:23.612Z,80.63
2017-08-30T21:22:51.322Z,81.70
2017-08-30T21:25:19.107Z,81.09
2017-08-30T21:27:46.958Z,81.07
2017-08-30T21:30:14.754Z,81.38
2017-08-30T21:32:42.525Z,81.56
2017-08-30T21:35:10.709Z,82.00
2017-08-30T21:37:38.565Z,81.65
2017-08-30T21:40:06.483Z,81.54
2017-08-30T21:42:34.232Z,80.64
2017-08-30T21:45:01.992Z,81.42
2017-08-30T21:47:29.730Z,80.92
2017-08-30T21:49:57.484Z,80.75
2017-08-30T21:52:25.225Z,80.91
2017-08-30T21:54:52.942Z,79.92
2017-08-30T21:57:20.705Z,80.37
2017-08-30T21:59:48.466Z,81.49
2017-08-30T22:02:16.978Z,81.58
2017-08-30T22:04:44.670Z,82.23
2017-08-30T22:07:12.389Z,81.62
2017-08-30T22:09:40.116Z,81.20
2017-08-30T22:12:07.817Z,81.55
2017-08-30T22:14:35.613Z,81.44
2017-08-30T22:17:03.370Z,81.63
2017-08-30T22:19:31.111Z,82.06
2017-08-30T22:21:58.892Z,81.79
2017-08-30T22:24:26.590Z,81.46
2017-08-30T22:26:54.303Z,81.44
2017-08-30T22:29:22.062Z,81.32
2017-08-30T22:31:49.768Z,82.07
2017-08-30T22:34:18.569Z,82.57
2017-08-30T22:36:46.281Z,82.31
2017-08-30T22:39:14.134Z,82.23
2017-08-30T22:41:41.827Z,82.50
2017-08-30T22:44:09.557Z,83.00
2017-08-30T22:46:37.380Z,82.41
2017-08-30T22:49:05.074Z,82.65
2017-08-30T22:51:34.001Z,82.96
2017-08-30T22:54:02.493Z,82.79
2017-08-30T22:56:30.244Z,82.94
2017-08-30T22:58:58.754Z,82.73
2017-08-30T23:01:27.699Z,83.04
2017-08-30T23:03:57.336Z,83.64
2017-08-30T23:06:25.835Z,83.24
2017-08-30T23:08:54.290Z,83.04
2017-08-30T23:11:22.098Z,83.21
2017-08-30T23:13:49.847Z,83.98
2017-08-30T23:16:17.615Z,83.03
2017-08-30T23:18:45.349Z,82.89
2017-08-30T23:21:13.070Z,83.29
2017-08-30T23:23:42.155Z,83.75
2017-08-30T23:26:09.904Z,83.92
2017-08-30T23:28:37.651Z,84.00
2017-08-30T23:31:05.400Z,84.56
2017-08-30T23:33:33.119Z,84.16
2017-08-30T23:36:00.943Z,83.96
2017-08-30T23:38:29.469Z,83.74
2017-08-30T23:40:57.179Z,83.50
2017-08-30T23:43:24.947Z,83.33
2017-08-30T23:45:52.653Z,83.63
2017-08-30T23:48:20.368Z,84.15
2017-08-30T23:50:48.182Z,84.10
2017-08-30T23:53:15.900Z,83.82
2017-08-30T23:55:43.591Z,84.25
2017-08-30T23:58:11.401Z,84.01
